Time;durP1;ratioP1;P1;durP2;ratioP2;P2;SDS_P1;SDS_P2;PMS_P1;PMS_P2;Temp;Humidity;BMP_temperature;BMP_pressure;BME280_temperature;BME280_humidity;BME280_pressure;Samples;Min_cycle;Max_cycle;Signal;HPM_P1;HPM_P2
2023/08/21 00:00:04;;;;;;;2.70;2.13;;;;;;;;;;10306996;28;20096;-88
2023/08/21 00:05:09;;;;;;;2.30;2.10;;;;;;;;;;10319831;28;20130;-89
2023/08/21 00:10:14;;;;;;;3.72;2.25;;;;;;;;;;10288769;28;20420;-85
2023/08/21 00:15:17;;;;;;;2.47;2.27;;;;;;;;;;10305846;28;20053;-84
2023/08/21 00:20:21;;;;;;;3.15;2.08;;;;;;;;;;10309970;28;20051;-84
2023/08/21 00:25:26;;;;;;;2.92;2.20;;;;;;;;;;10324041;28;20067;-85
2023/08/21 00:30:30;;;;;;;3.85;2.15;;;;;;;;;;10319220;28;20089;-88
2023/08/21 00:35:33;;;;;;;2.63;2.35;;;;;;;;;;10308973;28;20145;-85
2023/08/21 00:40:38;;;;;;;2.10;1.90;;;;;;;;;;10309426;28;20130;-87
2023/08/21 00:45:44;;;;;;;2.88;1.95;;;;;;;;;;10329074;28;20515;-84
2023/08/21 00:50:47;;;;;;;2.75;2.13;;;;;;;;;;10311322;28;20117;-89
2023/08/21 00:55:52;;;;;;;2.95;2.10;;;;;;;;;;10310436;28;20093;-85
2023/08/21 01:23:10;;;;;;;3.30;2.25;;;;;;;;;;11632044;23;20078;-89
2023/08/21 01:28:15;;;;;;;2.55;1.85;;;;;;;;;;10303977;28;20039;-89
2023/08/21 01:33:20;;;;;;;3.58;2.05;;;;;;;;;;10275294;28;20070;-90
2023/08/21 01:38:24;;;;;;;2.05;1.85;;;;;;;;;;10275402;28;20039;-90
2023/08/21 01:43:29;;;;;;;1.98;1.77;;;;;;;;;;10275303;28;20054;-89
2023/08/21 01:48:33;;;;;;;3.00;2.07;;;;;;;;;;10274089;28;20043;-89
2023/08/21 01:53:36;;;;;;;2.25;2.05;;;;;;;;;;10289998;28;20322;-89
2023/08/21 01:58:41;;;;;;;3.13;2.60;;;;;;;;;;10274254;28;20541;-90
2023/08/21 02:03:44;;;;;;;6.47;2.22;;;;;;;;;;10274979;28;20046;-88
2023/08/21 02:08:49;;;;;;;2.80;2.13;;;;;;;;;;10274094;28;20062;-89
2023/08/21 02:13:54;;;;;;;5.45;2.45;;;;;;;;;;10274717;28;20062;-89
2023/08/21 02:18:58;;;;;;;2.45;2.25;;;;;;;;;;10273854;28;20053;-89
2023/08/21 02:24:02;;;;;;;1.98;1.88;;;;;;;;;;10273768;28;20105;-88
2023/08/21 02:29:07;;;;;;;2.10;1.90;;;;;;;;;;10274518;28;20054;-89
2023/08/21 02:34:10;;;;;;;2.47;1.87;;;;;;;;;;10273829;28;20047;-89
2023/08/21 02:39:14;;;;;;;2.72;2.45;;;;;;;;;;10273186;28;20050;-89
2023/08/21 02:44:19;;;;;;;3.20;2.50;;;;;;;;;;10273469;28;20047;-89
2023/08/21 02:49:23;;;;;;;3.83;2.22;;;;;;;;;;10273776;28;20051;-89
2023/08/21 02:54:27;;;;;;;2.58;2.38;;;;;;;;;;10273899;28;20141;-88
2023/08/21 02:59:33;;;;;;;4.82;2.33;;;;;;;;;;10273968;28;20131;-89
2023/08/21 03:04:36;;;;;;;2.40;2.20;;;;;;;;;;10276086;28;20054;-89
2023/08/21 03:09:42;;;;;;;2.80;2.42;;;;;;;;;;10281092;28;20090;-89
2023/08/21 03:14:47;;;;;;;2.80;2.10;;;;;;;;;;10280775;28;20046;-89
2023/08/21 03:19:51;;;;;;;2.33;2.13;;;;;;;;;;10296394;28;20039;-89
2023/08/21 03:24:54;;;;;;;2.45;2.22;;;;;;;;;;10280142;28;20097;-89
2023/08/21 03:30:00;;;;;;;3.45;2.47;;;;;;;;;;10279911;28;20569;-88
2023/08/21 03:35:05;;;;;;;3.33;2.63;;;;;;;;;;10278888;28;20572;-89
2023/08/21 03:40:10;;;;;;;2.60;2.00;;;;;;;;;;10279333;28;20698;-89
2023/08/21 03:45:15;;;;;;;3.17;2.20;;;;;;;;;;10278952;28;20142;-90
2023/08/21 03:50:19;;;;;;;2.70;2.10;;;;;;;;;;10279162;28;20494;-89
2023/08/21 03:55:22;;;;;;;2.47;2.15;;;;;;;;;;10278702;28;20046;-88
2023/08/21 04:00:27;;;;;;;4.68;2.65;;;;;;;;;;10279148;28;20046;-89
2023/08/21 04:05:30;;;;;;;2.97;2.00;;;;;;;;;;10277867;28;20046;-90
2023/08/21 04:10:34;;;;;;;4.93;2.50;;;;;;;;;;10278017;28;20047;-88
2023/08/21 04:15:40;;;;;;;5.15;2.65;;;;;;;;;;10295091;28;20049;-89
2023/08/21 04:20:44;;;;;;;5.85;2.60;;;;;;;;;;10295227;28;20046;-89
2023/08/21 04:25:47;;;;;;;2.63;2.30;;;;;;;;;;10315507;28;20659;-90
2023/08/21 04:30:52;;;;;;;3.83;2.35;;;;;;;;;;10317164;28;20046;-89
2023/08/21 04:35:56;;;;;;;2.63;2.13;;;;;;;;;;10317951;28;20054;-89
2023/08/21 04:41:08;;;;;;;3.35;2.33;;;;;;;;;;10317270;28;20141;-89
2023/08/21 04:46:17;;;;;;;3.38;2.35;;;;;;;;;;10317323;28;20538;-89
2023/08/21 04:51:21;;;;;;;2.78;2.45;;;;;;;;;;10317661;28;20054;-89
2023/08/21 04:56:25;;;;;;;2.53;2.17;;;;;;;;;;10335676;28;20046;-89
2023/08/21 05:01:31;;;;;;;2.75;2.17;;;;;;;;;;10318863;28;20050;-89
2023/08/21 05:06:36;;;;;;;2.65;2.28;;;;;;;;;;10317919;28;20609;-89
2023/08/21 05:11:40;;;;;;;5.75;2.60;;;;;;;;;;10317377;28;20050;-89
2023/08/21 05:16:45;;;;;;;2.50;2.30;;;;;;;;;;10316521;28;20054;-89
2023/08/21 05:21:49;;;;;;;3.43;2.43;;;;;;;;;;10316525;28;20048;-90
2023/08/21 05:26:53;;;;;;;3.97;2.75;;;;;;;;;;10316235;28;20053;-91
2023/08/21 05:31:59;;;;;;;2.55;2.35;;;;;;;;;;10317467;28;20043;-89
2023/08/21 05:37:03;;;;;;;4.97;2.53;;;;;;;;;;10315994;28;20078;-90
2023/08/21 05:42:07;;;;;;;2.75;2.08;;;;;;;;;;10316474;28;20054;-89
2023/08/21 05:47:14;;;;;;;3.30;2.70;;;;;;;;;;10317124;28;20046;-89
2023/08/21 05:52:18;;;;;;;5.65;2.80;;;;;;;;;;10315948;28;20076;-90
2023/08/21 05:57:22;;;;;;;2.35;2.13;;;;;;;;;;10315576;28;20050;-89
2023/08/21 06:02:32;;;;;;;2.47;2.10;;;;;;;;;;10315734;28;20050;-89
2023/08/21 06:07:39;;;;;;;5.20;2.33;;;;;;;;;;10315263;28;20042;-89
2023/08/21 06:12:44;;;;;;;2.95;2.72;;;;;;;;;;10314811;28;20129;-90
2023/08/21 06:17:49;;;;;;;4.82;3.00;;;;;;;;;;10314299;28;20062;-93
2023/08/21 06:22:53;;;;;;;5.47;2.80;;;;;;;;;;10314962;28;20042;-93
2023/08/21 06:27:56;;;;;;;3.60;3.13;;;;;;;;;;10314345;28;20133;-93
2023/08/21 06:33:02;;;;;;;3.72;2.72;;;;;;;;;;10314776;28;20042;-93
2023/08/21 06:38:07;;;;;;;2.95;2.58;;;;;;;;;;10291992;28;20050;-93
2023/08/21 06:43:11;;;;;;;4.28;2.47;;;;;;;;;;10298839;28;20051;-93
2023/08/21 06:48:20;;;;;;;3.17;2.55;;;;;;;;;;10282057;28;20046;-93
2023/08/21 06:53:24;;;;;;;4.10;2.70;;;;;;;;;;10316002;28;20042;-93
2023/08/21 06:58:27;;;;;;;2.80;2.50;;;;;;;;;;10321904;28;20050;-93
2023/08/21 07:03:32;;;;;;;2.95;2.70;;;;;;;;;;10358842;23;20051;-81
2023/08/21 07:08:37;;;;;;;6.75;4.03;;;;;;;;;;10278028;28;20074;-81
2023/08/21 07:13:41;;;;;;;3.90;3.50;;;;;;;;;;10278252;28;20047;-83
2023/08/21 07:18:45;;;;;;;4.07;2.85;;;;;;;;;;10280934;28;20062;-83
2023/08/21 07:23:49;;;;;;;3.53;3.22;;;;;;;;;;10305488;28;20038;-83
2023/08/21 07:28:52;;;;;;;2.90;2.58;;;;;;;;;;10280187;28;20146;-83
2023/08/21 07:33:57;;;;;;;3.03;2.70;;;;;;;;;;10267396;28;20073;-82
2023/08/21 07:39:01;;;;;;;2.90;2.70;;;;;;;;;;10288972;28;20055;-83
2023/08/21 07:44:04;;;;;;;2.85;2.47;;;;;;;;;;10275337;28;20054;-83
2023/08/21 07:49:09;;;;;;;3.70;2.72;;;;;;;;;;10279072;28;20066;-83
2023/08/21 07:54:12;;;;;;;2.47;2.28;;;;;;;;;;10277504;28;20512;-82
2023/08/21 07:59:16;;;;;;;4.47;2.88;;;;;;;;;;10281270;28;20464;-82
2023/08/21 08:04:20;;;;;;;2.88;2.55;;;;;;;;;;10279812;28;20039;-84
2023/08/21 08:09:24;;;;;;;3.22;2.92;;;;;;;;;;10275169;28;20058;-82
2023/08/21 08:14:28;;;;;;;3.00;2.25;;;;;;;;;;10301060;28;20070;-82
2023/08/21 08:19:33;;;;;;;3.03;2.72;;;;;;;;;;10284848;28;20559;-83
2023/08/21 08:24:36;;;;;;;2.57;2.37;;;;;;;;;;10284459;28;20077;-83
2023/08/21 08:29:39;;;;;;;2.83;2.63;;;;;;;;;;10281764;28;20074;-81
2023/08/21 08:34:46;;;;;;;3.15;2.65;;;;;;;;;;10278420;28;20063;-82
2023/08/21 08:39:49;;;;;;;3.22;2.92;;;;;;;;;;10295952;28;20051;-81
2023/08/21 08:44:55;;;;;;;2.75;2.53;;;;;;;;;;10273890;28;20047;-81
2023/08/21 08:50:00;;;;;;;;;;;;;;;;;;10297267;28;20105;-82
2023/08/21 08:55:04;;;;;;;6.37;5.20;;;;;;;;;;10295243;28;20413;-83
2023/08/21 09:00:08;;;;;;;6.00;4.55;;;;;;;;;;10275295;28;20610;-82
2023/08/21 09:05:13;;;;;;;3.23;2.93;;;;;;;;;;10277413;28;20055;-82
2023/08/21 09:10:19;;;;;;;2.83;2.47;;;;;;;;;;10293398;28;20050;-82
2023/08/21 09:15:29;;;;;;;3.17;2.63;;;;;;;;;;10270532;28;20051;-82
2023/08/21 09:20:40;;;;;;;2.63;2.40;;;;;;;;;;10267290;28;20057;-82
2023/08/21 09:25:47;;;;;;;2.92;2.55;;;;;;;;;;10273600;28;20046;-82
2023/08/21 09:30:52;;;;;;;3.00;2.42;;;;;;;;;;10277995;28;20504;-82
2023/08/21 09:35:57;;;;;;;3.40;2.72;;;;;;;;;;10280113;28;20039;-82
2023/08/21 09:41:03;;;;;;;2.30;2.03;;;;;;;;;;10291807;28;20043;-83
2023/08/21 09:46:06;;;;;;;3.22;1.90;;;;;;;;;;10271392;28;20051;-83
2023/08/21 09:51:11;;;;;;;1.85;1.58;;;;;;;;;;10275310;28;20046;-83
2023/08/21 09:56:14;;;;;;;2.33;1.30;;;;;;;;;;10266931;28;20046;-82
2023/08/21 10:01:21;;;;;;;2.90;1.30;;;;;;;;;;10275700;28;20043;-82
2023/08/21 10:06:26;;;;;;;1.50;1.40;;;;;;;;;;10258978;28;20066;-82
2023/08/21 10:11:30;;;;;;;2.50;2.20;;;;;;;;;;10256270;28;20453;-82
2023/08/21 10:16:33;;;;;;;2.20;1.70;;;;;;;;;;10254512;28;20610;-82
2023/08/21 10:21:39;;;;;;;1.33;1.23;;;;;;;;;;10244370;28;20035;-83
2023/08/21 10:26:42;;;;;;;1.17;1.00;;;;;;;;;;10255791;28;20077;-82
2023/08/21 10:32:01;;;;;;;1.80;1.30;;;;;;;;;;10257100;28;20043;-83
2023/08/21 10:37:12;;;;;;;;;;;;;;;;;;10276451;28;20047;-82
2023/08/21 10:42:15;;;;;;;1.52;1.13;;;;;;;;;;10250171;28;20020;-83
2023/08/21 10:47:20;;;;;;;1.00;0.93;;;;;;;;;;10267143;28;20044;-83
2023/08/21 10:52:26;;;;;;;1.10;1.00;;;;;;;;;;10244570;28;20062;-83
2023/08/21 10:57:31;;;;;;;1.08;0.98;;;;;;;;;;10253797;28;20142;-83
2023/08/21 11:02:36;;;;;;;3.28;1.13;;;;;;;;;;10245068;28;20051;-83
2023/08/21 11:07:43;;;;;;;1.63;1.20;;;;;;;;;;10239197;28;20055;-82
2023/08/21 11:12:51;;;;;;;1.70;1.48;;;;;;;;;;10252344;28;20075;-82
2023/08/21 11:17:59;;;;;;;1.58;1.15;;;;;;;;;;10260546;28;20074;-81
2023/08/21 11:23:06;;;;;;;1.23;1.13;;;;;;;;;;10257904;28;20041;-82
2023/08/21 11:28:10;;;;;;;1.08;0.88;;;;;;;;;;10250051;28;20043;-83
2023/08/21 11:33:14;;;;;;;1.17;0.93;;;;;;;;;;10272529;28;20082;-83
2023/08/21 11:38:21;;;;;;;1.98;1.40;;;;;;;;;;10264789;28;20047;-83
2023/08/21 11:43:34;;;;;;;1.77;1.20;;;;;;;;;;10261247;28;20122;-82
2023/08/21 11:48:39;;;;;;;1.03;0.93;;;;;;;;;;10261678;28;20349;-82
2023/08/21 11:53:44;;;;;;;1.15;1.05;;;;;;;;;;10271140;28;20043;-83
2023/08/21 11:58:48;;;;;;;1.75;1.45;;;;;;;;;;10245197;28;20080;-82
2023/08/21 12:03:55;;;;;;;1.20;1.10;;;;;;;;;;10255654;28;20047;-83
2023/08/21 12:09:00;;;;;;;1.40;1.30;;;;;;;;;;10249034;28;20051;-82
2023/08/21 12:14:03;;;;;;;1.23;0.90;;;;;;;;;;10276321;28;20051;-84
2023/08/21 12:19:09;;;;;;;1.10;1.00;;;;;;;;;;10276405;28;20332;-83
2023/08/21 12:24:13;;;;;;;1.67;1.20;;;;;;;;;;10260774;28;20074;-83
2023/08/21 12:29:17;;;;;;;1.65;1.20;;;;;;;;;;10261965;28;20046;-83
2023/08/21 12:34:20;;;;;;;1.08;0.98;;;;;;;;;;10244615;28;20070;-82
2023/08/21 12:39:25;;;;;;;1.60;1.38;;;;;;;;;;10267655;28;20073;-82
2023/08/21 12:44:28;;;;;;;;;;;;;;;;;;10274825;28;20078;-82
2023/08/21 12:49:31;;;;;;;2.65;1.10;;;;;;;;;;10245638;28;19957;-82
2023/08/21 12:54:36;;;;;;;1.40;1.10;;;;;;;;;;10240409;28;20106;-82
2023/08/21 12:59:40;;;;;;;1.92;0.90;;;;;;;;;;10246130;28;20110;-83
2023/08/21 13:04:43;;;;;;;1.70;1.08;;;;;;;;;;10390145;23;20174;-87
2023/08/21 13:09:51;;;;;;;1.70;1.05;;;;;;;;;;10295126;28;20050;-86
2023/08/21 13:14:55;;;;;;;1.05;0.90;;;;;;;;;;10296462;28;20070;-86
2023/08/21 13:20:02;;;;;;;1.50;1.40;;;;;;;;;;10315576;28;20081;-86
2023/08/21 13:25:08;;;;;;;1.65;1.15;;;;;;;;;;10297150;28;20062;-88
2023/08/21 13:30:23;;;;;;;1.65;1.08;;;;;;;;;;10316755;28;20053;-86
2023/08/21 13:35:27;;;;;;;2.42;1.40;;;;;;;;;;10286855;28;20499;-86
2023/08/21 13:40:32;;;;;;;;;;;;;;;;;;10286754;28;20528;-86
2023/08/21 13:45:35;;;;;;;2.15;1.15;;;;;;;;;;10293761;28;20335;-86
2023/08/21 13:50:41;;;;;;;1.77;0.98;;;;;;;;;;10301367;28;20089;-86
2023/08/21 13:55:49;;;;;;;1.02;0.80;;;;;;;;;;10286257;28;20058;-86
2023/08/21 14:00:55;;;;;;;1.05;0.77;;;;;;;;;;10283401;28;20047;-87
2023/08/21 14:06:00;;;;;;;1.17;0.85;;;;;;;;;;10263927;28;20046;-87
2023/08/21 14:11:05;;;;;;;5.60;1.30;;;;;;;;;;10260298;28;20177;-86
2023/08/21 14:16:12;;;;;;;1.77;1.05;;;;;;;;;;10293770;28;20043;-86
2023/08/21 14:21:20;;;;;;;2.00;1.20;;;;;;;;;;10279263;28;20419;-88
2023/08/21 14:26:25;;;;;;;1.52;1.13;;;;;;;;;;10278760;28;20141;-88
2023/08/21 14:31:28;;;;;;;1.30;1.20;;;;;;;;;;10260327;28;20078;-86
2023/08/21 14:36:38;;;;;;;1.63;0.90;;;;;;;;;;10260188;28;20043;-86
2023/08/21 14:41:44;;;;;;;1.52;1.30;;;;;;;;;;10266061;28;20461;-85
2023/08/21 14:46:48;;;;;;;7.72;1.10;;;;;;;;;;10266119;28;20042;-87
2023/08/21 14:51:51;;;;;;;1.25;1.05;;;;;;;;;;10257704;28;20101;-88
2023/08/21 14:56:56;;;;;;;1.50;1.33;;;;;;;;;;10276374;28;20075;-86
2023/08/21 15:02:00;;;;;;;1.85;1.10;;;;;;;;;;10264566;28;20046;-89
2023/08/21 15:07:03;;;;;;;2.40;1.20;;;;;;;;;;10298455;28;20499;-86
2023/08/21 15:12:11;;;;;;;1.70;1.17;;;;;;;;;;10289505;28;20162;-88
2023/08/21 15:17:14;;;;;;;2.63;2.00;;;;;;;;;;10306695;28;20484;-87
2023/08/21 15:22:21;;;;;;;2.17;1.50;;;;;;;;;;10307056;28;20066;-86
2023/08/21 15:27:26;;;;;;;1.42;1.23;;;;;;;;;;10300122;28;20042;-86
2023/08/21 15:32:29;;;;;;;1.70;1.30;;;;;;;;;;10300084;28;20070;-86
2023/08/21 15:37:32;;;;;;;2.08;1.33;;;;;;;;;;10288943;28;20125;-85
2023/08/21 15:42:37;;;;;;;2.83;1.52;;;;;;;;;;10270961;28;20141;-86
2023/08/21 15:47:41;;;;;;;2.65;1.88;;;;;;;;;;10302127;28;20508;-87
2023/08/21 15:52:49;;;;;;;1.63;1.45;;;;;;;;;;10298935;28;20045;-86
2023/08/21 15:57:54;;;;;;;3.95;1.80;;;;;;;;;;10286629;28;20043;-89
2023/08/21 16:02:58;;;;;;;1.90;1.58;;;;;;;;;;10309453;28;20057;-91
2023/08/21 16:08:02;;;;;;;3.40;2.10;;;;;;;;;;10277281;28;20065;-86
2023/08/21 16:13:08;;;;;;;;;;;;;;;;;;10313106;28;20045;-85
2023/08/21 16:18:12;;;;;;;1.77;1.40;;;;;;;;;;10283875;28;19977;-89
2023/08/21 16:23:16;;;;;;;3.10;1.52;;;;;;;;;;10289088;28;20460;-86
2023/08/21 16:28:21;;;;;;;2.33;1.60;;;;;;;;;;10286051;28;20057;-85
2023/08/21 16:33:24;;;;;;;;;;;;;;;;;;10297530;28;20088;-86
2023/08/21 16:38:28;;;;;;;2.20;1.60;;;;;;;;;;10271636;28;19944;-88
2023/08/21 16:43:32;;;;;;;2.20;2.00;;;;;;;;;;10297868;28;20125;-87
2023/08/21 16:48:36;;;;;;;2.47;2.05;;;;;;;;;;10297969;28;20800;-85
2023/08/21 16:53:40;;;;;;;2.00;1.63;;;;;;;;;;10282704;28;20975;-86
2023/08/21 16:58:45;;;;;;;;;;;;;;;;;;10285835;28;20074;-86
2023/08/21 17:03:48;;;;;;;2.88;2.38;;;;;;;;;;10285157;28;19957;-87
2023/08/21 17:08:52;;;;;;;3.38;2.30;;;;;;;;;;10287267;28;20039;-86
2023/08/21 17:13:57;;;;;;;2.33;1.65;;;;;;;;;;10291330;28;20108;-87
2023/08/21 17:19:00;;;;;;;2.78;1.92;;;;;;;;;;10305190;28;20054;-86
2023/08/21 17:24:04;;;;;;;1.85;1.65;;;;;;;;;;10312263;28;20731;-86
2023/08/21 17:29:09;;;;;;;3.20;2.28;;;;;;;;;;10279064;28;20038;-85
2023/08/21 17:34:12;;;;;;;2.45;2.25;;;;;;;;;;10310238;28;20068;-85
2023/08/21 17:39:17;;;;;;;2.25;1.95;;;;;;;;;;10286420;28;20138;-86
2023/08/21 17:44:22;;;;;;;3.45;1.77;;;;;;;;;;10274210;28;20433;-86
2023/08/21 17:49:25;;;;;;;2.75;2.10;;;;;;;;;;10314140;28;20042;-86
2023/08/21 17:54:30;;;;;;;3.45;1.85;;;;;;;;;;10307686;28;20042;-85
2023/08/21 17:59:36;;;;;;;2.33;1.95;;;;;;;;;;10297702;28;20050;-86
2023/08/21 18:04:39;;;;;;;2.47;2.00;;;;;;;;;;10295557;28;20129;-88
2023/08/21 18:09:43;;;;;;;2.63;2.13;;;;;;;;;;10272638;28;20110;-84
2023/08/21 18:14:48;;;;;;;2.42;2.20;;;;;;;;;;10298419;28;20030;-86
2023/08/21 18:19:51;;;;;;;2.47;2.10;;;;;;;;;;10297554;28;20532;-85
2023/08/21 18:24:55;;;;;;;4.18;2.67;;;;;;;;;;10280251;28;20051;-86
2023/08/21 18:30:02;;;;;;;3.55;2.30;;;;;;;;;;10288682;28;20449;-85
2023/08/21 18:35:06;;;;;;;3.70;2.13;;;;;;;;;;10277584;28;20045;-86
2023/08/21 18:40:11;;;;;;;3.50;2.25;;;;;;;;;;10305690;28;20074;-86
2023/08/21 18:45:16;;;;;;;2.40;1.87;;;;;;;;;;10276685;28;20081;-87
2023/08/21 18:50:21;;;;;;;3.13;2.50;;;;;;;;;;10305373;28;20447;-86
2023/08/21 18:55:24;;;;;;;2.28;2.00;;;;;;;;;;10281334;28;20284;-87
2023/08/21 19:00:29;;;;;;;2.28;2.08;;;;;;;;;;10290742;28;20137;-87
2023/08/21 19:05:32;;;;;;;4.35;2.70;;;;;;;;;;10248447;23;20058;-87
2023/08/21 19:10:36;;;;;;;2.80;2.47;;;;;;;;;;10242874;28;20086;-87
2023/08/21 19:15:41;;;;;;;3.58;2.63;;;;;;;;;;10246078;28;20554;-85
2023/08/21 19:20:45;;;;;;;3.67;2.17;;;;;;;;;;10232463;28;20504;-86
2023/08/21 19:25:48;;;;;;;3.95;2.50;;;;;;;;;;10264886;28;20054;-86
2023/08/21 19:30:53;;;;;;;3.60;2.58;;;;;;;;;;10191796;28;20079;-86
2023/08/21 19:35:57;;;;;;;2.55;2.22;;;;;;;;;;10165756;29;20044;-87
2023/08/21 19:41:01;;;;;;;3.47;2.28;;;;;;;;;;10148546;29;20052;-87
2023/08/21 19:46:06;;;;;;;4.63;2.55;;;;;;;;;;10168714;29;20517;-86
2023/08/21 19:51:10;;;;;;;3.70;2.67;;;;;;;;;;10149537;29;20043;-86
2023/08/21 19:56:14;;;;;;;5.50;2.50;;;;;;;;;;10183938;29;20058;-87
2023/08/21 20:01:19;;;;;;;5.47;2.50;;;;;;;;;;10173807;29;20056;-86
2023/08/21 20:06:23;;;;;;;4.68;3.10;;;;;;;;;;10163554;29;20135;-87
2023/08/21 20:11:27;;;;;;;3.33;2.47;;;;;;;;;;10160431;29;20112;-88
2023/08/21 20:16:38;;;;;;;3.10;2.60;;;;;;;;;;10182130;29;20095;-87
2023/08/21 20:21:42;;;;;;;7.68;2.85;;;;;;;;;;10189020;29;20036;-87
2023/08/21 20:26:47;;;;;;;4.40;2.83;;;;;;;;;;10178709;29;20050;-87
2023/08/21 20:31:52;;;;;;;4.30;2.83;;;;;;;;;;10166577;29;20071;-86
2023/08/21 20:36:56;;;;;;;5.43;2.63;;;;;;;;;;10155205;29;20067;-87
2023/08/21 20:42:02;;;;;;;6.57;3.13;;;;;;;;;;10178015;29;20040;-87
2023/08/21 20:47:07;;;;;;;6.03;3.10;;;;;;;;;;10168270;29;20497;-85
2023/08/21 20:52:11;;;;;;;;;;;;;;;;;;10196286;29;20242;-85
2023/08/21 20:57:14;;;;;;;3.75;2.20;;;;;;;;;;10171127;29;19929;-85
2023/08/21 21:02:21;;;;;;;4.63;2.58;;;;;;;;;;10167913;29;20060;-85
2023/08/21 21:07:27;;;;;;;3.40;2.28;;;;;;;;;;10165720;29;20060;-85
2023/08/21 21:12:51;;;;;;;3.72;2.42;;;;;;;;;;10155789;29;20062;-86
2023/08/21 21:17:57;;;;;;;4.53;2.95;;;;;;;;;;10181606;29;20732;-86
2023/08/21 21:23:02;;;;;;;3.33;2.92;;;;;;;;;;10182321;29;20067;-86
2023/08/21 21:28:06;;;;;;;4.13;2.78;;;;;;;;;;10157683;29;20126;-86
2023/08/21 21:33:11;;;;;;;3.63;3.00;;;;;;;;;;10162017;29;20051;-86
2023/08/21 21:38:14;;;;;;;3.97;2.80;;;;;;;;;;10178828;29;20510;-85
2023/08/21 21:43:18;;;;;;;5.03;3.22;;;;;;;;;;10151411;29;20051;-86
2023/08/21 21:48:23;;;;;;;4.13;3.17;;;;;;;;;;10158997;29;20052;-87
2023/08/21 21:53:28;;;;;;;3.22;2.90;;;;;;;;;;10156893;29;20052;-86
2023/08/21 21:58:33;;;;;;;4.53;2.75;;;;;;;;;;10159475;29;20056;-87
2023/08/21 22:03:39;;;;;;;3.72;2.80;;;;;;;;;;10161129;29;20163;-86
2023/08/21 22:08:42;;;;;;;3.03;2.60;;;;;;;;;;10150779;29;20462;-87
2023/08/21 22:13:46;;;;;;;3.53;2.80;;;;;;;;;;10164539;29;20159;-87
2023/08/21 22:18:51;;;;;;;3.75;2.92;;;;;;;;;;10161480;29;20114;-86
2023/08/21 22:23:56;;;;;;;5.80;2.87;;;;;;;;;;10167727;29;20047;-86
2023/08/21 22:29:00;;;;;;;3.80;2.58;;;;;;;;;;10178856;29;20066;-86
2023/08/21 22:34:05;;;;;;;3.45;2.58;;;;;;;;;;10207558;29;20044;-86
2023/08/21 22:39:08;;;;;;;2.73;2.50;;;;;;;;;;10207174;29;20053;-88
2023/08/21 22:44:12;;;;;;;3.92;2.78;;;;;;;;;;10204415;29;20058;-88
2023/08/21 22:49:17;;;;;;;5.50;2.90;;;;;;;;;;10212301;29;20272;-87
2023/08/21 22:54:27;;;;;;;4.30;2.80;;;;;;;;;;10186451;29;20040;-88
2023/08/21 22:59:31;;;;;;;2.38;2.17;;;;;;;;;;10204442;29;20047;-87
2023/08/21 23:04:36;;;;;;;3.10;2.67;;;;;;;;;;10209487;29;20128;-87
2023/08/21 23:09:40;;;;;;;5.43;2.78;;;;;;;;;;10198357;29;20067;-89
2023/08/21 23:14:44;;;;;;;3.50;2.75;;;;;;;;;;10207138;29;20086;-86
2023/08/21 23:19:49;;;;;;;4.65;2.75;;;;;;;;;;10214815;28;20043;-86
2023/08/21 23:24:53;;;;;;;4.07;2.58;;;;;;;;;;10202280;29;20134;-86
2023/08/21 23:29:57;;;;;;;3.33;2.53;;;;;;;;;;10203318;29;20142;-85
2023/08/21 23:35:02;;;;;;;4.05;2.30;;;;;;;;;;10200600;29;20557;-86
2023/08/21 23:40:09;;;;;;;3.28;2.55;;;;;;;;;;10214516;29;20541;-86
2023/08/21 23:45:13;;;;;;;3.20;2.83;;;;;;;;;;10202454;29;20071;-87
2023/08/21 23:50:21;;;;;;;6.53;3.20;;;;;;;;;;10201719;29;20114;-86
2023/08/21 23:55:25;;;;;;;2.67;2.47;;;;;;;;;;10202327;29;20611;-86
